Time;durP1;ratioP1;P1;durP2;ratioP2;P2;SDS_P1;SDS_P2;PMS_P1;PMS_P2;Temp;Humidity;BMP_temperature;BMP_pressure;BME280_temperature;BME280_humidity;BME280_pressure;Samples;Min_cycle;Max_cycle;Signal;HPM_P1;HPM_P2
2022/08/26 00:01:07;;;;;;;33.92;28.52;;;22.50;99.90;;;;;;5032526;28;20377;-65
2022/08/26 00:03:35;;;;;;;40.53;28.80;;;22.40;99.90;;;;;;5032544;28;20061;-65
2022/08/26 00:06:00;;;;;;;36.63;28.77;;;22.40;99.90;;;;;;5032084;28;20534;-66
2022/08/26 00:08:26;;;;;;;37.22;28.77;;;22.30;99.90;;;;;;5032171;28;20069;-65
2022/08/26 00:10:51;;;;;;;35.55;29.63;;;22.30;99.90;;;;;;5032254;28;20124;-66
2022/08/26 00:13:17;;;;;;;40.15;29.10;;;22.30;99.90;;;;;;5032033;28;20045;-66
2022/08/26 00:15:43;;;;;;;38.67;30.50;;;22.30;99.90;;;;;;5032271;28;20040;-65
2022/08/26 00:18:09;;;;;;;38.08;30.05;;;22.30;99.90;;;;;;5031022;28;20396;-66
2022/08/26 00:20:35;;;;;;;40.47;30.58;;;22.20;99.90;;;;;;5032293;28;20042;-66
2022/08/26 00:23:01;;;;;;;39.97;32.25;;;22.20;99.90;;;;;;5033418;28;20056;-66
2022/08/26 00:25:27;;;;;;;42.15;33.67;;;22.20;99.90;;;;;;5032189;28;20045;-66
2022/08/26 00:27:52;;;;;;;41.53;33.35;;;22.10;99.90;;;;;;5032633;28;20114;-65
2022/08/26 00:30:21;;;;;;;40.05;32.78;;;22.10;99.90;;;;;;5032029;28;20037;-65
2022/08/26 00:32:47;;;;;;;46.72;34.25;;;22.00;99.90;;;;;;5031950;28;20046;-65
2022/08/26 00:35:13;;;;;;;44.33;34.85;;;22.00;99.90;;;;;;5031649;28;20040;-65
2022/08/26 00:37:40;;;;;;;45.63;36.00;;;22.00;99.90;;;;;;5031843;28;20040;-65
2022/08/26 00:40:09;;;;;;;40.88;34.38;;;22.00;99.90;;;;;;5031697;28;20044;-65
2022/08/26 00:42:35;;;;;;;41.22;34.92;;;21.90;99.90;;;;;;5031169;28;20056;-65
2022/08/26 00:45:03;;;;;;;41.90;36.83;;;21.90;99.90;;;;;;5029967;28;20443;-65
2022/08/26 00:47:42;;;;;;;45.92;38.03;;;21.80;99.90;;;;;;5031706;28;20045;-65
2022/08/26 00:50:12;;;;;;;44.15;37.85;;;21.80;99.90;;;;;;5031626;28;20053;-65
2022/08/26 00:52:39;;;;;;;45.47;36.55;;;21.80;99.90;;;;;;5029984;28;20041;-65
2022/08/26 00:55:18;;;;;;;46.47;38.50;;;21.80;99.90;;;;;;5031035;28;20073;-65
2022/08/26 00:57:45;;;;;;;50.28;39.60;;;21.80;99.90;;;;;;5014117;28;20403;-65
2022/08/26 01:00:15;;;;;;;50.25;40.13;;;21.70;99.90;;;;;;5031670;28;20441;-65
2022/08/26 01:02:42;;;;;;;49.17;40.40;;;21.60;99.90;;;;;;5031327;28;20053;-65
2022/08/26 01:05:10;;;;;;;52.95;40.40;;;21.60;99.90;;;;;;5031103;28;20419;-65
2022/08/26 01:07:36;;;;;;;50.45;39.42;;;21.60;99.90;;;;;;5031091;28;20124;-65
2022/08/26 01:10:09;;;;;;;54.33;41.00;;;21.60;99.90;;;;;;5031230;28;20586;-65
2022/08/26 01:12:39;;;;;;;49.47;39.45;;;21.50;99.90;;;;;;5031204;28;20077;-65
2022/08/26 01:15:07;;;;;;;48.75;39.47;;;21.50;99.90;;;;;;5031104;28;20037;-65
2022/08/26 01:17:33;;;;;;;51.58;39.60;;;21.50;99.90;;;;;;5031087;28;20045;-65
2022/08/26 01:20:11;;;;;;;52.75;40.63;;;21.40;99.90;;;;;;5031027;28;20538;-65
2022/08/26 01:22:57;;;;;;;53.13;41.45;;;21.40;99.90;;;;;;5031198;28;20038;-65
2022/08/26 01:25:26;;;;;;;52.28;40.63;;;21.50;99.90;;;;;;5030862;28;20037;-65
2022/08/26 01:27:56;;;;;;;58.28;43.28;;;21.40;99.90;;;;;;5030914;28;20050;-65
2022/08/26 01:30:22;;;;;;;55.65;44.03;;;21.30;99.90;;;;;;5030836;28;20041;-65
2022/08/26 01:32:50;;;;;;;55.85;42.22;;;21.30;99.90;;;;;;5030652;28;20049;-65
2022/08/26 01:35:16;;;;;;;54.33;41.17;;;21.20;99.90;;;;;;5030660;28;20052;-65
2022/08/26 01:37:41;;;;;;;55.35;40.55;;;21.30;99.90;;;;;;5030737;28;20037;-65
2022/08/26 01:40:11;;;;;;;59.83;41.33;;;21.30;99.90;;;;;;5030817;28;20037;-65
2022/08/26 01:42:39;;;;;;;54.85;41.80;;;21.20;99.90;;;;;;5029481;28;20056;-65
2022/08/26 01:45:08;;;;;;;53.13;41.22;;;21.30;99.90;;;;;;5029170;28;20099;-65
2022/08/26 01:47:35;;;;;;;52.13;39.28;;;21.30;99.90;;;;;;5030921;28;20053;-65
2022/08/26 01:50:06;;;;;;;56.08;40.92;;;21.30;99.90;;;;;;5030838;28;20117;-65
2022/08/26 01:52:36;;;;;;;58.35;40.35;;;21.20;99.90;;;;;;5030500;28;20559;-65
2022/08/26 01:55:03;;;;;;;64.50;40.75;;;21.20;99.90;;;;;;5033483;28;20081;-65
2022/08/26 01:57:29;;;;;;;51.53;39.33;;;21.20;99.90;;;;;;5034777;28;20041;-66
2022/08/26 02:00:00;;;;;;;52.95;38.72;;;21.20;99.90;;;;;;5034829;28;20073;-65
2022/08/26 02:02:25;;;;;;;57.58;38.28;;;21.10;99.90;;;;;;5034751;28;20045;-65
2022/08/26 02:05:04;;;;;;;58.95;37.28;;;21.10;99.90;;;;;;5034371;28;20052;-65
2022/08/26 02:07:31;;;;;;;49.00;36.85;;;21.10;99.90;;;;;;5033222;28;20507;-66
2022/08/26 02:09:57;;;;;;;50.00;36.70;;;21.10;99.90;;;;;;5034514;28;20044;-65
2022/08/26 02:12:25;;;;;;;54.80;35.95;;;21.10;99.90;;;;;;5034609;28;20046;-65
2022/08/26 02:14:54;;;;;;;56.05;37.90;;;21.00;99.90;;;;;;5034325;28;20033;-66
2022/08/26 02:17:32;;;;;;;55.33;36.38;;;21.10;99.90;;;;;;5034454;28;20068;-65
2022/08/26 02:19:58;;;;;;;52.58;34.78;;;21.10;99.90;;;;;;5034508;28;20041;-65
2022/08/26 02:22:24;;;;;;;50.42;35.00;;;21.10;99.90;;;;;;5034134;28;20639;-65
2022/08/26 02:24:55;;;;;;;46.13;32.90;;;21.10;99.90;;;;;;5033969;28;20120;-65
2022/08/26 02:27:31;;;;;;;47.50;32.22;;;21.20;99.90;;;;;;5034218;28;20037;-65
2022/08/26 02:30:15;;;;;;;49.38;32.97;;;21.10;99.90;;;;;;5034163;28;20037;-65
2022/08/26 02:32:41;;;;;;;45.80;32.45;;;21.20;99.90;;;;;;5032755;28;20042;-65
2022/08/26 02:35:08;;;;;;;52.05;32.50;;;21.20;99.90;;;;;;5032659;28;20049;-66
2022/08/26 02:37:34;;;;;;;45.10;31.67;;;21.20;99.90;;;;;;5033841;28;20522;-65
2022/08/26 02:40:00;;;;;;;45.00;29.83;;;21.20;99.90;;;;;;5033987;28;20034;-65
2022/08/26 02:42:26;;;;;;;46.53;31.58;;;21.20;99.90;;;;;;5032809;28;20038;-65
2022/08/26 02:44:52;;;;;;;43.83;30.85;;;21.20;99.90;;;;;;5032186;28;20076;-65
2022/08/26 02:47:18;;;;;;;46.28;30.88;;;21.20;99.90;;;;;;5032865;28;20052;-65
2022/08/26 02:49:44;;;;;;;39.45;29.05;;;21.20;99.90;;;;;;5033702;28;20041;-65
2022/08/26 02:52:10;;;;;;;45.38;30.73;;;21.20;99.90;;;;;;5033862;28;20046;-66
2022/08/26 02:54:36;;;;;;;44.85;28.38;;;21.10;99.90;;;;;;5033609;28;20029;-66
2022/08/26 02:57:02;;;;;;;45.65;29.95;;;21.10;99.90;;;;;;5033844;28;20048;-66
2022/08/26 02:59:28;;;;;;;45.60;28.90;;;21.10;99.90;;;;;;5033694;28;20063;-65
2022/08/26 03:01:54;;;;;;;42.65;29.85;;;21.00;99.90;;;;;;5033495;28;20681;-65
2022/08/26 03:04:20;;;;;;;45.28;29.65;;;21.00;99.90;;;;;;5032881;28;20514;-65
2022/08/26 03:06:48;;;;;;;45.20;28.60;;;21.00;99.90;;;;;;5033479;28;20037;-65
2022/08/26 03:09:15;;;;;;;49.67;29.70;;;21.00;99.90;;;;;;5033450;28;20052;-65
2022/08/26 03:11:40;;;;;;;46.15;29.95;;;21.10;99.90;;;;;;5033274;28;20068;-66
2022/08/26 03:14:06;;;;;;;39.35;27.98;;;21.00;99.90;;;;;;5032983;28;20079;-65
2022/08/26 03:16:36;;;;;;;48.22;29.00;;;21.10;99.90;;;;;;5032663;28;20069;-66
2022/08/26 03:19:04;;;;;;;50.30;27.17;;;21.10;99.90;;;;;;5033508;28;20038;-65
2022/08/26 03:21:30;;;;;;;48.17;30.38;;;21.10;99.90;;;;;;5033283;28;20049;-65
2022/08/26 03:23:55;;;;;;;38.78;28.83;;;21.10;99.90;;;;;;5032836;28;20128;-65
2022/08/26 03:26:21;;;;;;;45.35;29.25;;;21.10;99.90;;;;;;5033369;28;20037;-65
2022/08/26 03:31:31;;;;;;;46.55;28.27;;;21.00;99.90;;;;;;5033265;28;20046;-66
2022/08/26 03:33:57;;;;;;;49.33;28.35;;;21.10;99.90;;;;;;5032761;28;20049;-66
2022/08/26 03:36:23;;;;;;;41.42;26.40;;;21.10;99.90;;;;;;5033092;28;20112;-65
2022/08/26 03:38:48;;;;;;;44.00;27.77;;;21.00;99.90;;;;;;5032944;28;20168;-65
2022/08/26 03:41:16;;;;;;;45.65;28.27;;;21.10;99.90;;;;;;5032938;28;20044;-66
2022/08/26 03:43:41;;;;;;;42.55;26.42;;;21.00;99.90;;;;;;5032583;28;20049;-66
2022/08/26 03:46:08;;;;;;;43.30;27.35;;;21.00;99.90;;;;;;5032928;28;20116;-65
2022/08/26 03:48:34;;;;;;;38.30;26.02;;;21.10;99.90;;;;;;5032941;28;20096;-65
2022/08/26 03:51:01;;;;;;;41.45;27.42;;;21.10;99.90;;;;;;5032824;28;20568;-65
2022/08/26 03:53:27;;;;;;;35.50;25.05;;;21.00;99.90;;;;;;5032699;28;20041;-65
2022/08/26 03:55:53;;;;;;;41.70;24.90;;;21.00;99.90;;;;;;5032486;28;20729;-65
2022/08/26 03:58:20;;;;;;;43.28;25.83;;;21.00;99.90;;;;;;5032561;28;20052;-66
2022/08/26 04:00:46;;;;;;;45.53;24.83;;;21.00;99.90;;;;;;5033269;28;20119;-65
2022/08/26 04:03:13;;;;;;;42.00;24.63;;;21.00;99.90;;;;;;5033835;28;20471;-65
2022/08/26 04:05:39;;;;;;;39.38;24.08;;;21.00;99.90;;;;;;5032302;28;20041;-65
2022/08/26 04:08:04;;;;;;;39.00;25.45;;;21.00;99.90;;;;;;5032951;28;20049;-65
2022/08/26 04:10:31;;;;;;;41.50;25.70;;;21.00;99.90;;;;;;5032558;28;20190;-65
2022/08/26 04:12:58;;;;;;;43.47;24.92;;;21.00;99.90;;;;;;5032073;28;20487;-65
2022/08/26 04:15:24;;;;;;;42.95;26.15;;;21.00;99.90;;;;;;5032035;28;20737;-65
2022/08/26 04:17:49;;;;;;;51.95;26.75;;;21.00;99.90;;;;;;5031500;28;20124;-66
2022/08/26 04:20:17;;;;;;;42.15;25.30;;;21.00;99.90;;;;;;5032266;28;20120;-65
2022/08/26 04:22:43;;;;;;;43.20;24.58;;;21.00;99.90;;;;;;5032051;28;20452;-65
2022/08/26 04:25:10;;;;;;;41.05;23.67;;;21.00;99.90;;;;;;5031648;28;20499;-65
2022/08/26 04:27:35;;;;;;;41.40;25.15;;;21.00;99.90;;;;;;5028929;28;20051;-66
2022/08/26 04:30:02;;;;;;;37.13;24.10;;;21.00;99.90;;;;;;5028999;28;20037;-65
2022/08/26 04:32:27;;;;;;;41.17;24.85;;;21.10;99.90;;;;;;5028516;28;20492;-66
2022/08/26 04:34:53;;;;;;;39.22;24.90;;;21.10;99.90;;;;;;5029274;28;20041;-66
2022/08/26 04:37:18;;;;;;;41.40;23.73;;;21.00;99.90;;;;;;5028581;28;20473;-65
2022/08/26 04:39:44;;;;;;;37.15;22.38;;;21.00;99.90;;;;;;5028886;28;20051;-65
2022/08/26 04:42:09;;;;;;;38.88;24.20;;;21.00;99.90;;;;;;5029077;28;20520;-65
2022/08/26 04:44:36;;;;;;;43.83;22.38;;;21.00;99.90;;;;;;5030173;28;20124;-65
2022/08/26 04:47:02;;;;;;;37.85;22.92;;;21.00;99.90;;;;;;5030585;28;20044;-65
2022/08/26 04:49:27;;;;;;;36.35;22.30;;;21.00;99.90;;;;;;5030865;28;20045;-65
2022/08/26 04:51:53;;;;;;;44.90;22.98;;;21.00;99.90;;;;;;5030239;28;20487;-65
2022/08/26 04:54:19;;;;;;;40.47;22.83;;;21.10;99.90;;;;;;5030826;28;20048;-65
2022/08/26 04:56:48;;;;;;;37.40;22.67;;;21.10;99.90;;;;;;5031722;28;20044;-65
2022/08/26 04:59:16;;;;;;;41.28;21.88;;;21.10;99.90;;;;;;5031536;28;20033;-65
2022/08/26 05:01:47;;;;;;;37.60;21.77;;;21.10;99.90;;;;;;5031472;28;20038;-65
2022/08/26 05:04:13;;;;;;;48.50;22.60;;;21.10;99.90;;;;;;5031144;28;20044;-65
2022/08/26 05:06:38;;;;;;;33.72;21.73;;;21.10;99.90;;;;;;5031242;28;20034;-65
2022/08/26 05:09:04;;;;;;;38.75;23.05;;;21.10;99.90;;;;;;5031024;28;20126;-65
2022/08/26 05:11:30;;;;;;;38.83;22.45;;;21.00;99.90;;;;;;5031280;28;20044;-65
2022/08/26 05:13:55;;;;;;;37.83;22.15;;;21.00;99.90;;;;;;5030795;28;20487;-65
2022/08/26 05:16:21;;;;;;;35.72;21.90;;;21.00;99.90;;;;;;5029952;28;20037;-65
2022/08/26 05:18:47;;;;;;;40.25;21.27;;;21.10;99.90;;;;;;5031164;28;20471;-65
2022/08/26 05:21:21;;;;;;;32.30;21.75;;;21.00;99.90;;;;;;5031066;28;20052;-65
2022/08/26 05:23:47;;;;;;;32.08;19.27;;;21.10;99.90;;;;;;5030768;28;20120;-65
2022/08/26 05:26:13;;;;;;;38.08;19.92;;;21.00;99.90;;;;;;5029654;28;20517;-65
2022/08/26 05:28:39;;;;;;;42.97;20.83;;;21.10;99.90;;;;;;5031126;28;20045;-65
2022/08/26 05:31:17;;;;;;;29.92;19.77;;;21.00;99.90;;;;;;5031059;28;20503;-65
2022/08/26 05:33:44;;;;;;;38.55;21.88;;;21.00;99.90;;;;;;5030692;28;20049;-65
2022/08/26 05:36:12;;;;;;;33.55;20.27;;;20.90;99.90;;;;;;5030761;28;20470;-66
2022/08/26 05:38:38;;;;;;;33.47;19.67;;;21.00;99.90;;;;;;5029437;28;20510;-65
2022/08/26 05:41:12;;;;;;;31.13;18.52;;;21.10;99.90;;;;;;5030855;28;20033;-65
2022/08/26 05:43:38;;;;;;;36.55;18.67;;;21.10;99.90;;;;;;5030804;28;20087;-64
2022/08/26 05:46:07;;;;;;;26.48;17.90;;;21.10;99.90;;;;;;5030529;28;20511;-65
2022/08/26 05:48:32;;;;;;;25.75;17.30;;;21.20;99.90;;;;;;5030622;28;20084;-65
2022/08/26 05:51:02;;;;;;;27.75;17.92;;;21.20;99.90;;;;;;5030591;28;20081;-65
2022/08/26 05:53:28;;;;;;;29.42;17.80;;;21.10;99.90;;;;;;5029470;28;20038;-65
2022/08/26 05:55:55;;;;;;;23.60;16.63;;;21.10;99.90;;;;;;5030541;28;20044;-65
2022/08/26 05:58:22;;;;;;;31.73;16.63;;;21.20;99.90;;;;;;5030735;28;20033;-65
2022/08/26 06:01:09;;;;;;;28.15;16.13;;;21.20;99.90;;;;;;5030573;28;20030;-65
2022/08/26 06:03:38;;;;;;;25.70;16.85;;;21.20;99.90;;;;;;5030639;28;20045;-65
2022/08/26 06:06:09;;;;;;;29.38;16.80;;;21.20;99.90;;;;;;5030488;28;20385;-65
2022/08/26 06:08:35;;;;;;;29.33;16.02;;;21.20;99.90;;;;;;5030535;28;20049;-65
2022/08/26 06:11:07;;;;;;;29.77;15.90;;;21.30;99.90;;;;;;5030220;28;20507;-65
2022/08/26 06:13:34;;;;;;;26.75;15.70;;;21.40;99.90;;;;;;5030431;28;20044;-65
2022/08/26 06:16:04;;;;;;;29.55;14.98;;;21.40;99.90;;;;;;5030237;28;20056;-68
2022/08/26 06:18:35;;;;;;;31.98;17.40;;;21.40;99.90;;;;;;5030490;28;20046;-68
2022/08/26 06:21:19;;;;;;;25.25;13.88;;;21.20;99.90;;;;;;5030503;28;20080;-68
2022/08/26 06:26:32;;;;;;;28.33;15.05;;;21.20;99.90;;;;;;5030234;28;20049;-68
2022/08/26 06:28:57;;;;;;;25.70;15.00;;;21.10;99.90;;;;;;5030524;28;20040;-68
2022/08/26 06:31:24;;;;;;;23.45;14.00;;;21.30;99.90;;;;;;5030348;28;20491;-68
2022/08/26 06:33:50;;;;;;;32.28;14.57;;;21.40;99.90;;;;;;5030054;28;20532;-68
2022/08/26 06:36:22;;;;;;;24.58;14.90;;;21.50;99.90;;;;;;5029055;28;20140;-68
2022/08/26 06:38:48;;;;;;;32.30;13.93;;;21.30;99.90;;;;;;5030041;28;20080;-68
2022/08/26 06:41:14;;;;;;;31.08;13.13;;;21.20;99.90;;;;;;5033589;28;20106;-67
2022/08/26 06:43:40;;;;;;;32.63;14.60;;;21.30;99.90;;;;;;5032682;28;20073;-68
2022/08/26 06:46:09;;;;;;;22.23;12.98;;;21.30;99.90;;;;;;5032463;28;20081;-67
2022/08/26 06:48:35;;;;;;;23.58;10.88;;;21.30;99.90;;;;;;5034000;28;20392;-67
2022/08/26 06:51:09;;;;;;;22.25;10.63;;;21.50;99.90;;;;;;5033717;28;20045;-68
2022/08/26 06:53:36;;;;;;;26.52;10.30;;;21.50;99.90;;;;;;5033868;28;20046;-67
2022/08/26 06:56:05;;;;;;;22.20;10.40;;;21.50;99.90;;;;;;5033573;28;20394;-67
2022/08/26 06:58:31;;;;;;;21.65;9.80;;;21.60;99.90;;;;;;5033849;28;20045;-67
2022/08/26 07:00:57;;;;;;;27.27;11.02;;;21.60;99.90;;;;;;5033782;28;20034;-67
2022/08/26 07:03:22;;;;;;;26.08;12.18;;;21.60;99.90;;;;;;5033637;28;20724;-67
2022/08/26 07:05:48;;;;;;;29.90;11.55;;;21.60;99.90;;;;;;5032002;28;20084;-67
2022/08/26 07:08:14;;;;;;;20.38;11.07;;;21.60;99.90;;;;;;5033422;28;20050;-67
2022/08/26 07:10:41;;;;;;;23.65;11.55;;;21.60;99.90;;;;;;5032172;28;20095;-67
2022/08/26 07:13:07;;;;;;;27.83;11.40;;;21.60;99.90;;;;;;5033499;28;20084;-67
2022/08/26 07:15:34;;;;;;;26.95;11.18;;;21.70;99.90;;;;;;5033112;28;20041;-67
2022/08/26 07:18:01;;;;;;;25.20;10.73;;;21.60;99.90;;;;;;5015882;28;20438;-67
2022/08/26 07:20:27;;;;;;;26.77;10.65;;;21.50;99.90;;;;;;5033250;28;20041;-67
2022/08/26 07:22:53;;;;;;;26.23;10.65;;;21.70;99.90;;;;;;5015601;28;20045;-67
2022/08/26 07:25:18;;;;;;;21.10;10.30;;;21.70;99.90;;;;;;5032746;28;20045;-67
2022/08/26 07:27:44;;;;;;;34.85;10.85;;;21.70;99.90;;;;;;5033219;28;20065;-67
2022/08/26 07:30:10;;;;;;;25.15;10.68;;;21.80;99.90;;;;;;5029553;28;20491;-67
2022/08/26 07:32:36;;;;;;;24.45;9.38;;;21.80;99.90;;;;;;5023698;28;20034;-67
2022/08/26 07:35:03;;;;;;;27.63;9.65;;;21.80;99.90;;;;;;5022838;28;20454;-69
2022/08/26 07:37:28;;;;;;;19.73;8.68;;;21.70;99.90;;;;;;5020943;28;20120;-68
2022/08/26 07:39:54;;;;;;;32.55;9.55;;;21.80;99.90;;;;;;5022510;28;20041;-69
2022/08/26 07:42:20;;;;;;;25.77;8.10;;;21.90;99.90;;;;;;5031545;28;20041;-69
2022/08/26 07:44:47;;;;;;;25.33;7.93;;;21.90;99.90;;;;;;5032652;28;20076;-69
2022/08/26 07:47:13;;;;;;;23.70;7.65;;;22.00;99.90;;;;;;5032463;28;20033;-68
2022/08/26 07:49:39;;;;;;;19.75;7.25;;;22.00;99.90;;;;;;5032573;28;20041;-68
2022/08/26 07:52:05;;;;;;;20.15;6.63;;;22.00;99.90;;;;;;5031547;28;20040;-68
2022/08/26 07:54:31;;;;;;;18.13;7.35;;;22.10;99.90;;;;;;5032443;28;20042;-68
2022/08/26 07:56:57;;;;;;;24.25;7.53;;;22.20;99.90;;;;;;5032604;28;20087;-69
2022/08/26 07:59:23;;;;;;;16.23;7.55;;;22.20;99.90;;;;;;5032627;28;20037;-68
2022/08/26 08:01:49;;;;;;;18.35;7.30;;;22.10;99.90;;;;;;5032282;28;20033;-68
2022/08/26 08:04:17;;;;;;;16.25;7.10;;;22.10;99.90;;;;;;5032238;28;20095;-68
2022/08/26 08:06:44;;;;;;;16.45;5.80;;;22.10;99.90;;;;;;5032486;28;20053;-68
2022/08/26 08:09:11;;;;;;;17.13;6.53;;;22.20;99.90;;;;;;5032307;28;20052;-68
2022/08/26 08:11:37;;;;;;;17.73;6.22;;;22.20;99.90;;;;;;5032241;28;20041;-68
2022/08/26 08:14:03;;;;;;;19.65;5.97;;;22.20;99.90;;;;;;5031984;28;20037;-68
2022/08/26 08:16:29;;;;;;;13.65;6.28;;;22.20;99.90;;;;;;5032135;28;20116;-68
2022/08/26 08:18:55;;;;;;;21.30;6.43;;;22.20;99.90;;;;;;5031998;28;20132;-68
2022/08/26 08:21:25;;;;;;;12.57;5.78;;;22.20;99.90;;;;;;5032097;28;20041;-69
2022/08/26 08:23:52;;;;;;;16.20;5.57;;;22.20;99.90;;;;;;5030440;28;20077;-68
2022/08/26 08:26:18;;;;;;;15.38;5.82;;;22.20;99.90;;;;;;5032121;28;20033;-68
2022/08/26 08:28:45;;;;;;;14.95;5.40;;;22.20;99.90;;;;;;5030855;28;20447;-68
2022/08/26 08:31:21;;;;;;;10.77;4.97;;;22.30;99.90;;;;;;5031904;28;20033;-67
2022/08/26 08:33:47;;;;;;;13.40;5.80;;;22.30;99.90;;;;;;5031865;28;20124;-68
2022/08/26 08:36:14;;;;;;;16.25;5.45;;;22.30;99.90;;;;;;5032045;28;20700;-68
2022/08/26 08:38:39;;;;;;;12.35;5.60;;;22.20;99.90;;;;;;5030394;28;20077;-68
2022/08/26 08:41:14;;;;;;;19.63;5.93;;;22.20;99.90;;;;;;5030462;28;20080;-67
2022/08/26 08:43:42;;;;;;;11.68;5.50;;;22.10;99.90;;;;;;5030638;28;20103;-68
2022/08/26 08:46:12;;;;;;;18.10;6.28;;;22.10;99.90;;;;;;5031784;28;20049;-68
2022/08/26 08:48:46;;;;;;;19.50;6.30;;;22.30;99.90;;;;;;5014032;28;20399;-68
2022/08/26 08:51:26;;;;;;;18.88;6.10;;;22.10;99.90;;;;;;5030406;28;20565;-67
2022/08/26 08:53:54;;;;;;;13.50;5.28;;;22.20;99.90;;;;;;5031240;28;20517;-68
2022/08/26 08:56:34;;;;;;;14.85;5.55;;;22.30;99.90;;;;;;5030532;28;20470;-68
2022/08/26 08:59:19;;;;;;;17.52;5.10;;;22.40;99.90;;;;;;5031329;28;20482;-67
2022/08/26 09:02:01;;;;;;;18.23;5.97;;;22.40;99.90;;;;;;5030061;28;20128;-68
2022/08/26 09:04:41;;;;;;;16.83;5.05;;;22.30;99.90;;;;;;5030974;28;20399;-68
2022/08/26 09:07:12;;;;;;;12.57;4.63;;;22.20;99.90;;;;;;5030217;28;20539;-67
2022/08/26 09:09:50;;;;;;;16.00;5.00;;;22.20;99.90;;;;;;5030242;28;20263;-67
2022/08/26 09:12:27;;;;;;;12.50;4.43;;;22.40;99.90;;;;;;5029865;28;20053;-67
2022/08/26 09:14:59;;;;;;;14.32;4.05;;;22.20;99.90;;;;;;5013196;28;20495;-68
2022/08/26 09:17:40;;;;;;;14.55;4.30;;;22.40;99.90;;;;;;5030196;28;20045;-68
2022/08/26 09:20:16;;;;;;;17.50;3.55;;;22.40;99.90;;;;;;5031282;28;20127;-68
2022/08/26 09:22:42;;;;;;;11.18;3.28;;;22.60;99.90;;;;;;5030030;28;20543;-67
2022/08/26 09:25:10;;;;;;;18.55;3.05;;;22.70;99.90;;;;;;5029584;28;20045;-67
2022/08/26 09:27:41;;;;;;;13.45;2.63;;;22.60;99.90;;;;;;5030942;28;20120;-67
2022/08/26 09:30:08;;;;;;;14.60;2.53;;;22.60;99.90;;;;;;5031220;28;20402;-67
2022/08/26 09:32:34;;;;;;;14.52;3.13;;;22.70;99.90;;;;;;5030951;28;20049;-67
2022/08/26 09:35:06;;;;;;;12.40;2.50;;;22.70;99.90;;;;;;5030672;28;20037;-67
2022/08/26 09:37:37;;;;;;;13.30;2.50;;;22.70;99.90;;;;;;5030935;28;20037;-67
2022/08/26 09:40:27;;;;;;;11.60;2.28;;;22.70;99.90;;;;;;5030821;28;20041;-67
2022/08/26 09:43:04;;;;;;;11.13;2.35;;;22.80;99.90;;;;;;5030905;28;20051;-67
2022/08/26 09:45:30;;;;;;;8.70;2.30;;;22.80;99.90;;;;;;5030546;28;20046;-67
2022/08/26 09:47:57;;;;;;;11.30;1.95;;;22.80;99.90;;;;;;5013338;28;20049;-67
2022/08/26 09:50:54;;;;;;;12.88;2.17;;;23.00;99.90;;;;;;5030694;28;20033;-68
2022/08/26 09:53:26;;;;;;;9.35;2.00;;;22.90;99.90;;;;;;5021393;28;20065;-67
2022/08/26 09:56:13;;;;;;;9.57;2.15;;;22.80;99.90;;;;;;5029208;28;20033;-67
2022/08/26 09:58:42;;;;;;;8.32;1.92;;;22.90;99.90;;;;;;5030674;28;20029;-67
2022/08/26 10:01:15;;;;;;;6.53;1.70;;;22.90;99.90;;;;;;5030801;28;20041;-67
2022/08/26 10:03:41;;;;;;;12.88;2.10;;;23.00;99.90;;;;;;5030634;28;20073;-67
2022/08/26 10:06:16;;;;;;;15.15;2.30;;;22.70;99.90;;;;;;5030449;28;20758;-67
2022/08/26 10:08:47;;;;;;;6.93;1.77;;;22.70;99.90;;;;;;5030486;28;20041;-68
2022/08/26 10:11:30;;;;;;;13.43;1.98;;;22.60;99.90;;;;;;5030349;28;20741;-68
2022/08/26 10:14:01;;;;;;;9.50;1.83;;;22.60;99.90;;;;;;5030175;28;20566;-67
2022/08/26 10:16:52;;;;;;;14.13;2.15;;;22.60;99.90;;;;;;5034504;28;20399;-67
2022/08/26 10:19:27;;;;;;;12.32;1.95;;;22.50;99.90;;;;;;5033121;28;20045;-68
2022/08/26 10:22:04;;;;;;;14.23;2.17;;;22.50;99.90;;;;;;5032951;28;20469;-68
2022/08/26 10:24:41;;;;;;;11.00;2.22;;;22.50;99.90;;;;;;5033003;28;20050;-68
2022/08/26 10:27:24;;;;;;;9.13;2.17;;;22.40;99.90;;;;;;5034262;28;20483;-68
2022/08/26 10:29:53;;;;;;;9.90;1.95;;;22.60;99.90;;;;;;5034251;28;20042;-68
2022/08/26 10:32:41;;;;;;;9.57;2.10;;;22.60;99.90;;;;;;5034237;28;20045;-68
2022/08/26 10:35:10;;;;;;;6.25;1.75;;;22.70;99.90;;;;;;5034052;28;20045;-67
2022/08/26 10:37:47;;;;;;;7.43;2.33;;;22.50;99.90;;;;;;5034139;28;20040;-68
2022/08/26 10:40:23;;;;;;;10.70;1.98;;;22.60;99.90;;;;;;5034140;28;20410;-67
2022/08/26 10:42:57;;;;;;;9.77;2.13;;;22.60;99.90;;;;;;5034216;28;20125;-68
2022/08/26 10:45:27;;;;;;;11.52;2.08;;;22.60;99.90;;;;;;5033804;28;20545;-68
2022/08/26 10:48:00;;;;;;;5.82;2.10;;;22.70;99.90;;;;;;5034087;28;20120;-68
2022/08/26 10:50:33;;;;;;;8.93;1.67;;;22.70;99.90;;;;;;5021370;28;20074;-68
2022/08/26 10:53:02;;;;;;;6.28;1.98;;;22.70;99.90;;;;;;5013957;28;20057;-68
2022/08/26 10:55:39;;;;;;;8.05;2.05;;;22.80;99.90;;;;;;5012537;28;20117;-68
2022/08/26 10:58:30;;;;;;;9.68;2.33;;;22.90;99.90;;;;;;5014200;28;20501;-68
2022/08/26 11:04:29;;;;;;;8.40;2.40;;;22.90;99.90;;;;;;4971971;28;20484;-67
2022/08/26 11:07:34;;;;;;;10.57;2.20;;;22.80;99.90;;;;;;4972386;28;20480;-67
2022/08/26 11:10:20;;;;;;;11.05;2.50;;;22.60;99.90;;;;;;4955967;28;20135;-67
2022/08/26 11:12:50;;;;;;;10.00;2.40;;;22.60;99.90;;;;;;4972098;28;20059;-67
2022/08/26 11:15:18;;;;;;;9.93;2.20;;;22.50;99.90;;;;;;4971915;28;20500;-67
2022/08/26 11:17:44;;;;;;;12.10;2.38;;;22.70;99.90;;;;;;4972044;28;20038;-67
2022/08/26 11:20:22;;;;;;;11.98;2.08;;;22.80;99.90;;;;;;4972080;28;20043;-67
2022/08/26 11:22:52;;;;;;;9.27;2.17;;;22.90;99.90;;;;;;4972154;28;20047;-69
2022/08/26 11:25:19;;;;;;;9.95;2.17;;;23.00;99.90;;;;;;4976793;28;20054;-68
2022/08/26 11:27:48;;;;;;;8.60;2.35;;;22.90;99.90;;;;;;4990502;28;20238;-69
2022/08/26 11:30:18;;;;;;;12.27;2.25;;;22.80;99.90;;;;;;4992007;28;20042;-69
2022/08/26 11:32:46;;;;;;;8.95;2.15;;;22.90;99.90;;;;;;4991589;28;20052;-69
2022/08/26 11:35:20;;;;;;;10.98;2.55;;;22.90;99.90;;;;;;4991089;28;20039;-68
2022/08/26 11:37:56;;;;;;;10.63;2.55;;;23.00;99.90;;;;;;4997495;28;20053;-68
2022/08/26 11:40:31;;;;;;;10.82;2.28;;;23.10;99.90;;;;;;5013390;28;20037;-68
2022/08/26 11:43:01;;;;;;;7.53;2.20;;;22.80;99.90;;;;;;5013127;28;20120;-68
2022/08/26 11:45:33;;;;;;;7.25;2.45;;;23.00;99.90;;;;;;5013038;28;20408;-68
2022/08/26 11:48:14;;;;;;;10.48;2.55;;;23.00;99.90;;;;;;5011778;28;20116;-68
2022/08/26 11:50:50;;;;;;;7.22;2.15;;;23.00;99.90;;;;;;5013066;28;20094;-68
2022/08/26 11:53:17;;;;;;;12.60;2.70;;;22.80;99.90;;;;;;5012866;28;20522;-68
2022/08/26 11:55:43;;;;;;;8.18;2.50;;;22.80;99.90;;;;;;5011372;28;20045;-68
2022/08/26 11:58:11;;;;;;;12.43;2.45;;;22.80;99.90;;;;;;5013070;28;20050;-68
2022/08/26 12:00:51;;;;;;;11.13;2.00;;;22.80;99.90;;;;;;5012670;28;20117;-68
2022/08/26 12:03:20;;;;;;;10.50;2.40;;;22.90;99.90;;;;;;5012765;28;20045;-68
2022/08/26 12:05:50;;;;;;;10.48;2.08;;;22.90;99.90;;;;;;5012437;28;20070;-68
2022/08/26 12:08:22;;;;;;;6.85;2.00;;;22.90;99.90;;;;;;5012490;28;20512;-68
2022/08/26 12:10:50;;;;;;;;;;;22.80;99.90;;;;;;5013008;28;20038;-66
2022/08/26 12:13:22;;;;;;;11.00;2.10;;;22.60;99.90;;;;;;5012603;28;19921;-66
2022/08/26 12:15:53;;;;;;;12.65;2.50;;;22.60;99.90;;;;;;5010944;28;20048;-66
2022/08/26 12:18:29;;;;;;;17.60;2.33;;;22.80;99.90;;;;;;5012405;28;20038;-67
2022/08/26 12:20:55;;;;;;;13.30;2.13;;;22.80;99.90;;;;;;5012667;28;20084;-66
2022/08/26 12:23:24;;;;;;;7.63;1.90;;;22.80;99.90;;;;;;5012570;28;20034;-66
2022/08/26 12:25:52;;;;;;;6.07;1.77;;;22.80;99.90;;;;;;5012232;28;20407;-66
2022/08/26 12:28:20;;;;;;;15.57;2.22;;;22.80;99.90;;;;;;5012387;28;20403;-66
2022/08/26 12:31:18;;;;;;;8.63;2.28;;;22.60;99.90;;;;;;5012067;28;20514;-66
2022/08/26 12:33:44;;;;;;;17.15;2.78;;;22.60;99.90;;;;;;5011533;28;20108;-66
2022/08/26 12:36:10;;;;;;;12.45;1.77;;;22.60;99.90;;;;;;5012235;28;20120;-66
2022/08/26 12:38:36;;;;;;;15.13;2.60;;;22.70;99.90;;;;;;5011491;28;20046;-66
2022/08/26 12:41:01;;;;;;;22.10;2.55;;;22.70;99.90;;;;;;5011973;28;20053;-66
2022/08/26 12:43:44;;;;;;;12.60;2.40;;;22.70;99.90;;;;;;5011889;28;20496;-66
2022/08/26 12:46:16;;;;;;;11.65;2.28;;;22.70;99.90;;;;;;5012029;28;20052;-66
2022/08/26 12:48:46;;;;;;;11.77;2.60;;;22.80;99.90;;;;;;5012025;28;20095;-66
2022/08/26 12:51:27;;;;;;;10.07;2.17;;;22.90;99.90;;;;;;5011834;28;20124;-66
2022/08/26 12:53:53;;;;;;;13.40;2.08;;;22.80;99.90;;;;;;5011429;28;20074;-66